createdAt,value
2023-05-10T00:00:56.462Z,98123.91
2023-05-10T00:03:23.395Z,98129.41
2023-05-10T00:05:50.135Z,98122.28
2023-05-10T00:08:16.759Z,98124.09
2023-05-10T00:10:43.619Z,98120.59
2023-05-10T00:13:10.378Z,98118.59
2023-05-10T00:15:37.143Z,98121.25
2023-05-10T00:18:03.857Z,98117.25
2023-05-10T00:20:30.790Z,98114.59
2023-05-10T00:22:57.530Z,98121.44
2023-05-10T00:25:24.302Z,98114.44
2023-05-10T00:27:51.157Z,98111.63
2023-05-10T00:30:18.155Z,98105.28
2023-05-10T00:32:45.360Z,98106.78
2023-05-10T00:35:12.240Z,98114.59
2023-05-10T00:37:38.889Z,98109.28
2023-05-10T00:40:07.406Z,98105.94
2023-05-10T00:42:34.520Z,98106.47
2023-05-10T00:45:01.057Z,98111.63
2023-05-10T00:47:28.165Z,98108.63
2023-05-10T00:49:55.289Z,98110.47
2023-05-10T00:52:21.994Z,98107.97
2023-05-10T00:54:48.839Z,98100.47
2023-05-10T00:57:15.925Z,98096.16
2023-05-10T00:59:42.677Z,98099.16
2023-05-10T01:02:09.640Z,98092.66
2023-05-10T01:04:36.708Z,98098.00
2023-05-10T01:07:03.495Z,98094.66
2023-05-10T01:09:30.178Z,98093.00
2023-05-10T01:11:57.752Z,98100.66
2023-05-10T01:14:26.218Z,98096.34
2023-05-10T01:16:54.332Z,98102.31
2023-05-10T01:19:26.509Z,98106.31
2023-05-10T01:22:30.292Z,98094.00
2023-05-10T01:25:06.119Z,98104.97
2023-05-10T01:27:50.837Z,98111.47
2023-05-10T01:33:09.066Z,98108.13
2023-05-10T01:35:49.577Z,98106.31
2023-05-10T01:38:48.476Z,98109.31
2023-05-10T01:41:17.791Z,98106.66
2023-05-10T01:43:56.841Z,98110.78
2023-05-10T01:46:33.873Z,98111.97
2023-05-10T01:49:03.451Z,98107.63
2023-05-10T01:51:40.531Z,98109.94
2023-05-10T01:54:09.297Z,98108.63
2023-05-10T01:56:38.814Z,98103.13
2023-05-10T01:59:14.440Z,98108.28
2023-05-10T02:01:41.698Z,98118.78
2023-05-10T02:04:11.139Z,98123.09
2023-05-10T02:06:39.341Z,98122.59
2023-05-10T02:09:07.748Z,98118.59
2023-05-10T02:11:34.798Z,98118.59
2023-05-10T02:14:02.413Z,98121.09
2023-05-10T02:16:31.987Z,98125.75
2023-05-10T02:19:00.706Z,98117.75
2023-05-10T02:21:29.120Z,98115.78
2023-05-10T02:23:57.595Z,98120.28
2023-05-10T02:26:26.228Z,98116.59
2023-05-10T02:28:55.807Z,98119.91
2023-05-10T02:31:23.408Z,98118.91
2023-05-10T02:33:51.047Z,98118.06
2023-05-10T02:36:18.574Z,98115.59
2023-05-10T02:38:47.144Z,98114.44
2023-05-10T02:41:14.206Z,98120.09
2023-05-10T02:43:42.181Z,98127.06
2023-05-10T02:46:09.002Z,98118.91
2023-05-10T02:48:35.794Z,98118.91
2023-05-10T02:51:08.154Z,98113.59
2023-05-10T02:53:38.927Z,98112.09
2023-05-10T02:56:12.053Z,98114.91
2023-05-10T02:58:38.749Z,98111.25
2023-05-10T03:01:05.503Z,98108.44
2023-05-10T03:03:32.132Z,98105.09
2023-05-10T03:05:59.508Z,98115.44
2023-05-10T03:08:26.411Z,98118.72
2023-05-10T03:11:17.562Z,98119.91
2023-05-10T03:13:49.619Z,98113.41
2023-05-10T03:16:23.423Z,98115.91
2023-05-10T03:18:54.986Z,98116.25
2023-05-10T03:21:24.215Z,98112.91
2023-05-10T03:24:01.442Z,98121.06
2023-05-10T03:26:29.498Z,98116.72
2023-05-10T03:28:56.999Z,98118.88
2023-05-10T03:31:23.706Z,98114.06
2023-05-10T03:33:51.756Z,98110.22
2023-05-10T03:36:18.889Z,98107.56
2023-05-10T03:38:45.814Z,98111.91
2023-05-10T03:41:12.603Z,98116.91
2023-05-10T03:43:39.510Z,98114.91
2023-05-10T03:46:07.089Z,98112.91
2023-05-10T03:48:34.369Z,98114.91
2023-05-10T03:51:01.043Z,98112.09
2023-05-10T03:53:28.019Z,98112.09
2023-05-10T03:55:54.727Z,98108.75
2023-05-10T03:58:21.426Z,98109.59
2023-05-10T04:00:48.062Z,98114.75
2023-05-10T04:03:15.148Z,98110.91
2023-05-10T04:05:41.942Z,98112.41
2023-05-10T04:08:08.533Z,98115.88
2023-05-10T04:10:35.390Z,98110.25
2023-05-10T04:13:02.272Z,98130.56
2023-05-10T04:15:28.993Z,98133.50
2023-05-10T04:17:55.673Z,98139.16
2023-05-10T04:20:22.346Z,98141.97
2023-05-10T04:22:48.970Z,98142.09
2023-05-10T04:25:15.602Z,98149.94
2023-05-10T04:27:42.669Z,98136.78
2023-05-10T04:30:09.887Z,98142.09
2023-05-10T04:32:36.496Z,98134.44
2023-05-10T04:35:05.738Z,98140.06
2023-05-10T04:37:32.383Z,98139.09
2023-05-10T04:40:00.946Z,98143.78
2023-05-10T04:42:27.522Z,98140.94
2023-05-10T04:44:54.217Z,98142.59
2023-05-10T04:47:20.947Z,98142.75
2023-05-10T04:49:47.699Z,98152.06
2023-05-10T04:52:15.391Z,98149.84
2023-05-10T04:54:41.983Z,98150.00
2023-05-10T04:57:08.794Z,98148.38
2023-05-10T04:59:38.158Z,98145.53
2023-05-10T05:02:05.847Z,98156.69
2023-05-10T05:04:32.726Z,98154.22
2023-05-10T05:06:59.327Z,98159.41
2023-05-10T05:09:25.928Z,98165.69
2023-05-10T05:11:52.590Z,98164.06
2023-05-10T05:14:19.240Z,98163.56
2023-05-10T05:16:45.815Z,98165.69
2023-05-10T05:19:12.663Z,98179.63
2023-05-10T05:21:39.641Z,98170.38
2023-05-10T05:24:06.889Z,98185.34
2023-05-10T05:26:33.508Z,98182.19
2023-05-10T05:29:00.147Z,98181.19
2023-05-10T05:31:27.026Z,98192.28
2023-05-10T05:33:53.641Z,98190.47
2023-05-10T05:36:20.229Z,98190.31
2023-05-10T05:38:46.797Z,98193.66
2023-05-10T05:41:13.439Z,98192.88
2023-05-10T05:43:40.279Z,98197.34
2023-05-10T05:46:07.459Z,98198.34
2023-05-10T05:48:34.042Z,98197.84
2023-05-10T05:51:00.700Z,98201.84
2023-05-10T05:53:27.444Z,98202.72
2023-05-10T05:55:59.305Z,98201.72
2023-05-10T05:58:26.967Z,98205.06
2023-05-10T06:00:53.740Z,98215.03
2023-05-10T06:03:21.080Z,98221.03
2023-05-10T06:05:48.905Z,98215.75
2023-05-10T06:08:15.717Z,98220.91
2023-05-10T06:10:42.404Z,98227.38
2023-05-10T06:13:09.105Z,98230.06
2023-05-10T06:15:35.895Z,98229.72
2023-05-10T06:18:02.568Z,98237.88
2023-05-10T06:20:29.252Z,98231.41
2023-05-10T06:22:55.902Z,98240.41
2023-05-10T06:25:22.612Z,98242.91
2023-05-10T06:27:53.449Z,98252.03
2023-05-10T06:30:21.292Z,98250.34
2023-05-10T06:32:48.189Z,98247.88
2023-05-10T06:35:15.011Z,98251.38
2023-05-10T06:37:42.078Z,98258.84
2023-05-10T06:40:09.081Z,98251.38
2023-05-10T06:42:35.759Z,98258.72
2023-05-10T06:45:02.450Z,98255.75
2023-05-10T06:47:29.060Z,98269.72
2023-05-10T06:49:56.813Z,98265.03
2023-05-10T06:52:24.174Z,98259.28
2023-05-10T06:54:50.846Z,98269.78
2023-05-10T06:57:30.586Z,98272.91
2023-05-10T06:59:58.934Z,98263.44
2023-05-10T07:02:25.701Z,98269.63
2023-05-10T07:04:53.159Z,98264.94
2023-05-10T07:07:20.139Z,98264.47
2023-05-10T07:09:47.090Z,98274.44
2023-05-10T07:12:15.313Z,98272.72
2023-05-10T07:14:43.050Z,98277.22
2023-05-10T07:17:09.971Z,98273.25
2023-05-10T07:19:37.037Z,98280.44
2023-05-10T07:22:04.068Z,98281.78
2023-05-10T07:24:32.316Z,98284.28
2023-05-10T07:26:59.313Z,98282.09
2023-05-10T07:29:26.166Z,98294.63
2023-05-10T07:31:53.079Z,98294.09
2023-05-10T07:34:19.814Z,98298.78
2023-05-10T07:36:46.518Z,98292.63
2023-05-10T07:39:18.589Z,98291.47
2023-05-10T07:41:53.027Z,98298.97
2023-05-10T07:44:21.251Z,98293.81
2023-05-10T07:46:48.737Z,98302.44
2023-05-10T07:49:15.423Z,98309.44
2023-05-10T07:51:43.394Z,98303.78
2023-05-10T07:54:10.118Z,98304.44
2023-05-10T07:56:37.214Z,98313.78
2023-05-10T07:59:07.453Z,98309.13
2023-05-10T08:01:35.463Z,98320.78
2023-05-10T08:04:02.912Z,98310.94
2023-05-10T08:06:30.953Z,98316.75
2023-05-10T08:08:58.076Z,98324.91
2023-05-10T08:11:24.873Z,98311.69
2023-05-10T08:13:52.458Z,98321.69
2023-05-10T08:16:19.323Z,98324.72
2023-05-10T08:18:48.099Z,98314.69
2023-05-10T08:21:15.865Z,98326.75
2023-05-10T08:23:44.737Z,98330.41
2023-05-10T08:26:11.830Z,98335.50
2023-05-10T08:28:38.628Z,98335.16
2023-05-10T08:31:06.318Z,98328.94
2023-05-10T08:33:33.135Z,98332.31
2023-05-10T08:35:59.885Z,98321.63
2023-05-10T08:38:27.018Z,98328.94
2023-05-10T08:40:59.535Z,98334.81
2023-05-10T08:43:30.268Z,98329.06
2023-05-10T08:45:58.017Z,98327.03
2023-05-10T08:48:26.076Z,98333.09
2023-05-10T08:50:57.496Z,98338.72
2023-05-10T08:53:27.806Z,98344.53
2023-05-10T08:55:54.826Z,98351.72
2023-05-10T08:58:21.547Z,98358.25
2023-05-10T09:00:51.942Z,98368.03
2023-05-10T09:03:19.182Z,98368.63
2023-05-10T09:05:47.017Z,98353.34
2023-05-10T09:08:16.797Z,98365.00
2023-05-10T09:10:45.035Z,98375.69
2023-05-10T09:13:12.898Z,98372.94
2023-05-10T09:15:40.072Z,98374.81
2023-05-10T09:18:07.037Z,98366.81
2023-05-10T09:20:33.769Z,98378.56
2023-05-10T09:23:00.594Z,98381.31
2023-05-10T09:25:27.465Z,98379.97
2023-05-10T09:27:54.468Z,98385.94
2023-05-10T09:30:29.208Z,98381.59
2023-05-10T09:32:57.142Z,98385.59
2023-05-10T09:35:28.830Z,98386.94
2023-05-10T09:37:58.756Z,98393.97
2023-05-10T09:40:27.381Z,98402.91
2023-05-10T09:43:01.769Z,98396.81
2023-05-10T09:45:32.950Z,98394.97
2023-05-10T09:48:01.810Z,98400.31
2023-05-10T09:50:29.135Z,98399.81
2023-05-10T09:53:01.667Z,98404.59
2023-05-10T09:55:50.318Z,98394.25
2023-05-10T09:58:17.138Z,98398.56
2023-05-10T10:00:45.957Z,98399.50
2023-05-10T10:03:21.104Z,98402.31
2023-05-10T10:05:49.530Z,98408.50
2023-05-10T10:08:17.757Z,98398.56
2023-05-10T10:10:47.540Z,98399.25
2023-05-10T10:13:15.816Z,98398.06
2023-05-10T10:15:45.111Z,98387.63
2023-05-10T10:18:18.140Z,98394.13
2023-05-10T10:20:44.959Z,98391.47
2023-05-10T10:23:11.610Z,98399.84
2023-05-10T10:25:39.689Z,98397.41
2023-05-10T10:28:27.554Z,98400.28
2023-05-10T10:30:57.500Z,98399.28
2023-05-10T10:33:48.602Z,98410.13
2023-05-10T10:36:16.592Z,98407.50
2023-05-10T10:38:49.274Z,98411.91
2023-05-10T10:41:28.966Z,98414.06
2023-05-10T10:44:27.203Z,98414.00
2023-05-10T10:47:30.964Z,98412.03
2023-05-10T10:50:06.661Z,98404.88
2023-05-10T10:52:45.327Z,98413.81
2023-05-10T10:55:19.341Z,98410.00
2023-05-10T10:57:56.435Z,98409.25
2023-05-10T11:00:34.519Z,98407.41
2023-05-10T11:03:07.287Z,98411.28
2023-05-10T11:05:34.037Z,98407.81
2023-05-10T11:08:01.739Z,98402.81
2023-05-10T11:10:28.602Z,98402.47
2023-05-10T11:13:09.408Z,98399.06
2023-05-10T11:15:38.262Z,98400.81
2023-05-10T11:18:28.313Z,98402.38
2023-05-10T11:20:59.943Z,98396.38
2023-05-10T11:23:44.908Z,98398.50
2023-05-10T11:26:12.945Z,98399.34
2023-05-10T11:28:47.153Z,98391.38
2023-05-10T11:31:18.487Z,98401.19
2023-05-10T11:33:49.340Z,98397.44
2023-05-10T11:36:18.392Z,98396.63
2023-05-10T11:38:45.396Z,98398.28
2023-05-10T11:41:13.371Z,98398.97
2023-05-10T11:43:41.267Z,98398.53
2023-05-10T11:46:11.461Z,98400.56
2023-05-10T11:48:40.761Z,98396.88
2023-05-10T11:51:12.106Z,98401.16
2023-05-10T11:53:42.132Z,98407.72
2023-05-10T11:56:10.254Z,98407.34
2023-05-10T11:58:38.678Z,98410.59
2023-05-10T12:01:07.412Z,98404.06
2023-05-10T12:03:35.037Z,98406.97
2023-05-10T12:06:03.098Z,98409.91
2023-05-10T12:08:30.868Z,98412.44
2023-05-10T12:11:14.715Z,98403.16
2023-05-10T12:13:42.869Z,98407.34
2023-05-10T12:16:18.185Z,98409.00
2023-05-10T12:18:46.605Z,98413.34
2023-05-10T12:21:13.834Z,98413.19
2023-05-10T12:23:40.842Z,98422.16
2023-05-10T12:26:10.053Z,98416.81
2023-05-10T12:28:36.750Z,98424.19
2023-05-10T12:31:04.240Z,98418.28
2023-05-10T12:33:39.973Z,98421.78
2023-05-10T12:36:07.837Z,98427.53
2023-05-10T12:38:36.805Z,98432.59
2023-05-10T12:41:05.646Z,98437.09
2023-05-10T12:43:33.153Z,98439.59
2023-05-10T12:46:00.239Z,98436.47
2023-05-10T12:48:27.031Z,98433.53
2023-05-10T12:50:53.733Z,98444.38
2023-05-10T12:53:20.848Z,98446.25
2023-05-10T12:55:47.565Z,98446.84
2023-05-10T12:58:31.445Z,98452.47
2023-05-10T13:01:02.112Z,98443.06
2023-05-10T13:03:28.913Z,98456.38
2023-05-10T13:05:55.519Z,98449.81
2023-05-10T13:08:22.242Z,98449.72
2023-05-10T13:10:49.384Z,98452.38
2023-05-10T13:13:16.867Z,98452.31
2023-05-10T13:15:43.451Z,98450.81
2023-05-10T13:18:10.230Z,98457.81
2023-05-10T13:20:36.964Z,98453.66
2023-05-10T13:23:03.900Z,98453.31
2023-05-10T13:25:31.016Z,98446.41
2023-05-10T13:27:57.697Z,98443.06
2023-05-10T13:30:24.981Z,98457.09
2023-05-10T13:32:51.872Z,98457.75
2023-05-10T13:35:18.563Z,98450.09
2023-05-10T13:37:45.266Z,98455.06
2023-05-10T13:40:12.577Z,98449.72
2023-05-10T13:42:39.343Z,98447.94
2023-05-10T13:45:06.955Z,98446.31
2023-05-10T13:47:33.931Z,98454.94
2023-05-10T13:50:00.701Z,98448.28
2023-05-10T13:52:27.699Z,98443.50
2023-05-10T13:54:56.289Z,98446.03
2023-05-10T13:57:24.154Z,98450.03
2023-05-10T13:59:51.351Z,98443.03
2023-05-10T14:02:18.288Z,98442.34
2023-05-10T14:04:44.935Z,98441.69
2023-05-10T14:07:11.608Z,98438.03
2023-05-10T14:09:38.309Z,98433.53
2023-05-10T14:12:05.036Z,98430.47
2023-05-10T14:14:31.725Z,98438.50
2023-05-10T14:16:58.470Z,98437.81
2023-05-10T14:19:25.177Z,98434.59
2023-05-10T14:21:53.038Z,98438.34
2023-05-10T14:24:19.782Z,98441.91
2023-05-10T14:26:46.378Z,98451.50
2023-05-10T14:29:13.004Z,98452.03
2023-05-10T14:31:40.019Z,98461.19
2023-05-10T14:34:06.986Z,98465.72
2023-05-10T14:36:33.739Z,98477.09
2023-05-10T14:39:00.468Z,98483.47
2023-05-10T14:41:27.052Z,98495.69
2023-05-10T14:43:54.178Z,98502.97
2023-05-10T14:46:20.846Z,98506.44
2023-05-10T14:48:47.604Z,98510.34
2023-05-10T14:51:14.397Z,98516.63
2023-05-10T14:53:41.207Z,98524.69
2023-05-10T14:56:08.038Z,98529.81
2023-05-10T14:58:34.727Z,98527.50
2023-05-10T15:01:01.808Z,98531.84
2023-05-10T15:03:29.167Z,98531.09
2023-05-10T15:05:58.616Z,98532.81
2023-05-10T15:08:28.822Z,98536.25
2023-05-10T15:10:56.960Z,98536.75
2023-05-10T15:13:23.604Z,98536.91
2023-05-10T15:15:50.236Z,98538.56
2023-05-10T15:18:17.339Z,98549.22
2023-05-10T15:20:44.260Z,98542.56
2023-05-10T15:23:10.930Z,98549.56
2023-05-10T15:25:38.558Z,98552.22
2023-05-10T15:28:05.644Z,98557.19
2023-05-10T15:30:32.328Z,98557.56
2023-05-10T15:32:59.214Z,98551.25
2023-05-10T15:35:27.162Z,98556.56
2023-05-10T15:37:53.821Z,98552.72
2023-05-10T15:40:20.463Z,98560.53
2023-05-10T15:42:47.105Z,98552.88
2023-05-10T15:45:14.220Z,98555.41
2023-05-10T15:47:40.970Z,98559.22
2023-05-10T15:50:08.442Z,98556.22
2023-05-10T15:52:35.262Z,98558.75
2023-05-10T15:55:02.123Z,98556.91
2023-05-10T15:57:28.817Z,98563.59
2023-05-10T15:59:56.370Z,98554.97
2023-05-10T16:02:23.559Z,98561.81
2023-05-10T16:04:50.398Z,98564.00
2023-05-10T16:07:17.086Z,98560.97
2023-05-10T16:09:44.079Z,98569.31
2023-05-10T16:12:12.215Z,98570.59
2023-05-10T16:14:38.873Z,98567.25
2023-05-10T16:17:05.930Z,98563.75
2023-05-10T16:19:32.698Z,98574.09
2023-05-10T16:21:59.470Z,98577.13
2023-05-10T16:24:26.586Z,98576.63
2023-05-10T16:26:53.535Z,98577.13
2023-05-10T16:29:20.310Z,98570.94
2023-05-10T16:31:47.014Z,98569.31
2023-05-10T16:34:13.794Z,98571.34
2023-05-10T16:36:40.517Z,98576.38
2023-05-10T16:39:07.415Z,98577.88
2023-05-10T16:41:34.606Z,98571.34
2023-05-10T16:44:01.985Z,98579.03
2023-05-10T16:46:28.745Z,98579.69
2023-05-10T16:48:56.057Z,98573.38
2023-05-10T16:51:22.751Z,98580.38
2023-05-10T16:53:49.791Z,98585.56
2023-05-10T16:56:18.424Z,98581.72
2023-05-10T16:58:46.697Z,98583.25
2023-05-10T17:01:13.371Z,98585.91
2023-05-10T17:03:40.151Z,98582.88
2023-05-10T17:06:07.448Z,98587.06
2023-05-10T17:08:34.828Z,98593.91
2023-05-10T17:11:03.395Z,98594.41
2023-05-10T17:13:30.533Z,98596.06
2023-05-10T17:15:57.296Z,98589.59
2023-05-10T17:18:24.069Z,98596.06
2023-05-10T17:20:50.899Z,98599.75
2023-05-10T17:23:17.577Z,98595.44
2023-05-10T17:25:44.275Z,98597.75
2023-05-10T17:28:11.012Z,98607.09
2023-05-10T17:30:37.992Z,98605.06
2023-05-10T17:33:05.565Z,98606.44
2023-05-10T17:35:32.315Z,98610.78
2023-05-10T17:37:59.042Z,98608.78
2023-05-10T17:40:25.735Z,98608.13
2023-05-10T17:42:52.367Z,98610.44
2023-05-10T17:45:20.011Z,98612.97
2023-05-10T17:47:46.812Z,98613.13
2023-05-10T17:50:13.431Z,98615.63
2023-05-10T17:52:40.105Z,98613.78
2023-05-10T17:55:07.638Z,98618.13
2023-05-10T17:57:34.860Z,98614.59
2023-05-10T18:00:03.957Z,98611.94
2023-05-10T18:02:30.670Z,98613.75
2023-05-10T18:04:59.980Z,98611.09
2023-05-10T18:07:27.222Z,98608.41
2023-05-10T18:09:53.854Z,98608.25
2023-05-10T18:12:20.522Z,98615.28
2023-05-10T18:14:47.292Z,98609.09
2023-05-10T18:17:14.034Z,98615.44
2023-05-10T18:19:41.003Z,98612.41
2023-05-10T18:22:10.470Z,98612.03
2023-05-10T18:24:39.480Z,98612.31
2023-05-10T18:27:11.393Z,98616.59
2023-05-10T18:29:38.386Z,98614.63
2023-05-10T18:32:06.846Z,98618.63
2023-05-10T18:34:33.527Z,98622.56
2023-05-10T18:37:00.328Z,98626.91
2023-05-10T18:39:26.957Z,98621.56
2023-05-10T18:41:53.742Z,98624.38
2023-05-10T18:44:21.957Z,98633.03
2023-05-10T18:46:48.647Z,98628.53
2023-05-10T18:49:15.314Z,98636.72
2023-05-10T18:51:41.928Z,98635.88
2023-05-10T18:54:08.609Z,98640.03
2023-05-10T18:56:35.295Z,98649.34
2023-05-10T18:59:02.011Z,98645.00
2023-05-10T19:01:28.696Z,98645.16
2023-05-10T19:03:55.397Z,98651.47
2023-05-10T19:06:22.061Z,98661.47
2023-05-10T19:08:48.742Z,98667.09
2023-05-10T19:11:15.720Z,98658.44
2023-05-10T19:13:42.839Z,98660.41
2023-05-10T19:16:16.655Z,98666.88
2023-05-10T19:18:45.419Z,98665.22
2023-05-10T19:21:12.663Z,98670.00
2023-05-10T19:23:41.634Z,98675.34
2023-05-10T19:26:09.204Z,98666.66
2023-05-10T19:28:35.820Z,98667.69
2023-05-10T19:31:02.618Z,98677.50
2023-05-10T19:33:29.634Z,98682.97
2023-05-10T19:35:56.386Z,98677.94
2023-05-10T19:38:24.245Z,98683.44
2023-05-10T19:41:00.114Z,98678.56
2023-05-10T19:43:27.792Z,98684.06
2023-05-10T19:45:55.112Z,98680.56
2023-05-10T19:48:21.741Z,98680.00
2023-05-10T19:50:48.333Z,98686.47
2023-05-10T19:53:14.969Z,98691.78
2023-05-10T19:55:41.712Z,98686.75
2023-05-10T19:58:08.697Z,98687.06
2023-05-10T20:00:35.622Z,98680.06
2023-05-10T20:03:03.233Z,98686.66
2023-05-10T20:05:29.794Z,98694.97
2023-05-10T20:07:56.501Z,98693.28
2023-05-10T20:10:25.153Z,98694.41
2023-05-10T20:12:53.902Z,98693.75
2023-05-10T20:15:22.887Z,98691.38
2023-05-10T20:17:53.874Z,98687.22
2023-05-10T20:20:21.711Z,98696.19
2023-05-10T20:22:48.893Z,98690.16
2023-05-10T20:25:16.750Z,98695.81
2023-05-10T20:27:43.356Z,98688.81
2023-05-10T20:30:10.842Z,98690.63
2023-05-10T20:32:38.090Z,98697.06
2023-05-10T20:35:05.925Z,98690.06
2023-05-10T20:37:32.525Z,98694.03
2023-05-10T20:39:59.167Z,98685.34
2023-05-10T20:42:25.749Z,98686.38
2023-05-10T20:44:52.416Z,98691.00
2023-05-10T20:47:19.458Z,98688.63
2023-05-10T20:49:46.324Z,98684.00
2023-05-10T20:52:13.092Z,98679.97
2023-05-10T20:54:39.736Z,98678.44
2023-05-10T20:57:06.549Z,98689.22
2023-05-10T20:59:33.379Z,98693.56
2023-05-10T21:02:00.252Z,98682.06
2023-05-10T21:04:27.252Z,98686.56
2023-05-10T21:06:55.660Z,98684.91
2023-05-10T21:09:22.697Z,98686.88
2023-05-10T21:11:50.462Z,98688.69
2023-05-10T21:14:17.075Z,98686.88
2023-05-10T21:16:43.798Z,98686.19
2023-05-10T21:19:10.590Z,98688.84
2023-05-10T21:21:37.310Z,98688.00
2023-05-10T21:24:04.301Z,98688.00
2023-05-10T21:26:31.407Z,98688.84
2023-05-10T21:28:59.333Z,98681.84
2023-05-10T21:31:26.051Z,98681.84
2023-05-10T21:33:52.699Z,98685.78
2023-05-10T21:36:19.501Z,98688.47
2023-05-10T21:38:46.806Z,98693.78
2023-05-10T21:41:13.552Z,98689.44
2023-05-10T21:43:40.321Z,98687.47
2023-05-10T21:46:07.535Z,98694.47
2023-05-10T21:48:34.164Z,98691.81
2023-05-10T21:51:01.744Z,98687.75
2023-05-10T21:53:28.895Z,98692.41
2023-05-10T21:55:56.466Z,98689.06
2023-05-10T21:58:23.584Z,98690.03
2023-05-10T22:00:50.233Z,98685.41
2023-05-10T22:03:17.876Z,98685.28
2023-05-10T22:05:44.657Z,98687.75
2023-05-10T22:08:11.304Z,98683.44
2023-05-10T22:10:37.922Z,98686.91
2023-05-10T22:13:04.764Z,98685.41
2023-05-10T22:15:33.637Z,98692.41
2023-05-10T22:18:02.469Z,98688.06
2023-05-10T22:20:29.242Z,98690.88
2023-05-10T22:22:56.160Z,98692.69
2023-05-10T22:25:22.862Z,98693.53
2023-05-10T22:27:49.466Z,98690.03
2023-05-10T22:30:16.550Z,98692.00
2023-05-10T22:32:43.572Z,98690.34
2023-05-10T22:35:10.198Z,98686.97
2023-05-10T22:37:36.817Z,98690.63
2023-05-10T22:40:04.069Z,98695.81
2023-05-10T22:42:30.779Z,98691.47
2023-05-10T22:44:58.807Z,98694.25
2023-05-10T22:47:25.732Z,98691.91
2023-05-10T22:49:52.487Z,98685.63
2023-05-10T22:52:19.166Z,98692.59
2023-05-10T22:54:45.896Z,98692.91
2023-05-10T22:57:12.820Z,98694.72
2023-05-10T22:59:39.498Z,98689.53
2023-05-10T23:02:06.297Z,98694.84
2023-05-10T23:04:32.971Z,98691.53
2023-05-10T23:06:59.626Z,98687.84
2023-05-10T23:09:26.281Z,98694.84
2023-05-10T23:11:52.933Z,98696.00
2023-05-10T23:14:19.574Z,98702.31
2023-05-10T23:16:46.238Z,98699.66
2023-05-10T23:19:12.967Z,98701.47
2023-05-10T23:21:39.582Z,98702.31
2023-05-10T23:24:08.572Z,98704.13
2023-05-10T23:26:35.306Z,98698.09
2023-05-10T23:29:02.404Z,98697.97
2023-05-10T23:31:29.083Z,98705.09
2023-05-10T23:33:55.939Z,98696.28
2023-05-10T23:36:22.576Z,98704.97
2023-05-10T23:38:49.193Z,98707.75
2023-05-10T23:41:15.827Z,98700.09
2023-05-10T23:43:42.487Z,98692.13
2023-05-10T23:46:09.180Z,98692.13
2023-05-10T23:48:35.973Z,98692.13
2023-05-10T23:51:02.652Z,98698.25
2023-05-10T23:53:29.433Z,98691.09
2023-05-10T23:55:56.191Z,98692.13
2023-05-10T23:58:22.880Z,98688.44
